createdAt,value
2019-01-02T00:02:01.269Z,4.67
2019-01-02T00:07:06.508Z,3.70
2019-01-02T00:12:11.763Z,4.00
2019-01-02T00:17:17.074Z,5.13
2019-01-02T00:22:22.357Z,3.93
2019-01-02T00:27:27.919Z,3.33
2019-01-02T00:32:34.287Z,3.93
2019-01-02T00:37:39.597Z,3.77
2019-01-02T00:42:44.876Z,3.60
2019-01-02T00:47:50.125Z,3.50
2019-01-02T00:52:55.360Z,4.17
2019-01-02T00:58:00.589Z,3.47
2019-01-02T01:03:05.866Z,3.87
2019-01-02T01:08:11.139Z,4.47
2019-01-02T01:13:16.410Z,3.13
2019-01-02T01:18:21.682Z,3.60
2019-01-02T01:23:26.978Z,3.63
2019-01-02T01:28:32.245Z,4.10
2019-01-02T01:33:37.501Z,4.50
2019-01-02T01:38:42.795Z,3.53
2019-01-02T01:43:48.050Z,4.57
2019-01-02T01:48:53.278Z,4.47
2019-01-02T01:53:58.520Z,4.00
2019-01-02T01:59:03.791Z,3.23
2019-01-02T02:04:09.021Z,3.10
2019-01-02T02:09:14.280Z,4.87
2019-01-02T02:14:19.544Z,3.40
2019-01-02T02:19:24.772Z,3.60
2019-01-02T02:24:29.993Z,2.73
2019-01-02T02:29:35.285Z,3.13
2019-01-02T02:34:40.501Z,2.83
2019-01-02T02:39:45.725Z,3.03
2019-01-02T02:44:50.997Z,3.17
2019-01-02T02:49:56.273Z,3.47
2019-01-02T02:55:01.525Z,3.93
2019-01-02T03:00:11.707Z,3.30
2019-01-02T03:05:17.022Z,3.50
2019-01-02T03:10:22.345Z,3.07
2019-01-02T03:15:27.607Z,3.23
2019-01-02T03:20:32.837Z,3.23
2019-01-02T03:25:38.082Z,3.10
2019-01-02T03:30:43.361Z,2.70
2019-01-02T03:35:48.654Z,3.47
2019-01-02T03:40:53.889Z,3.67
2019-01-02T03:45:59.110Z,2.87
2019-01-02T03:51:04.345Z,2.80
2019-01-02T03:56:09.553Z,2.67
2019-01-02T04:01:14.778Z,2.43
2019-01-02T04:06:19.993Z,1.97
2019-01-02T04:11:25.219Z,2.07
2019-01-02T04:16:30.434Z,1.80
2019-01-02T04:21:35.657Z,1.60
2019-01-02T04:26:40.880Z,1.97
2019-01-02T04:31:46.110Z,1.80
2019-01-02T04:36:51.336Z,1.77
2019-01-02T04:41:56.546Z,2.00
2019-01-02T04:47:01.785Z,2.00
2019-01-02T04:52:07.017Z,2.10
2019-01-02T04:57:12.249Z,1.87
2019-01-02T05:02:17.465Z,1.90
2019-01-02T05:07:22.689Z,2.60
2019-01-02T05:12:27.917Z,1.87
2019-01-02T05:17:33.154Z,1.63
2019-01-02T05:22:38.382Z,2.33
2019-01-02T05:27:43.613Z,1.90
2019-01-02T05:32:48.859Z,2.57
2019-01-02T05:37:54.118Z,2.50
2019-01-02T05:42:59.357Z,1.53
2019-01-02T05:48:04.605Z,1.80
2019-01-02T05:53:09.826Z,1.70
2019-01-02T05:58:15.047Z,1.23
2019-01-02T06:03:20.262Z,2.00
2019-01-02T06:08:25.478Z,1.37
2019-01-02T06:13:30.709Z,1.97
2019-01-02T06:18:35.937Z,1.83
2019-01-02T06:23:41.172Z,1.60
2019-01-02T06:28:46.430Z,1.87
2019-01-02T06:33:51.977Z,1.17
2019-01-02T06:38:57.203Z,1.77
2019-01-02T06:44:02.436Z,1.80
2019-01-02T06:49:07.682Z,1.70
2019-01-02T06:54:12.903Z,1.40
2019-01-02T06:59:18.130Z,1.70
2019-01-02T07:04:23.349Z,1.37
2019-01-02T07:09:28.605Z,1.70
2019-01-02T07:14:33.818Z,1.93
2019-01-02T07:19:39.050Z,1.80
2019-01-02T07:24:44.309Z,1.47
2019-01-02T07:29:49.572Z,1.47
2019-01-02T07:35:12.088Z,1.37
2019-01-02T07:44:52.222Z,1.57
2019-01-02T07:53:14.224Z,1.70
2019-01-02T08:00:00.414Z,1.60
2019-01-02T08:09:37.253Z,1.30
2019-01-02T08:15:03.150Z,1.53
2019-01-02T08:23:33.661Z,1.90
2019-01-02T08:29:29.565Z,1.43
2019-01-02T08:35:09.822Z,1.53
2019-01-02T08:41:35.902Z,1.20
2019-01-02T08:47:59.798Z,1.07
2019-01-02T08:53:27.397Z,1.60
2019-01-02T09:07:52.753Z,1.20
2019-01-02T09:14:22.077Z,1.27
2019-01-02T09:19:46.714Z,1.00
2019-01-02T09:25:14.949Z,1.20
2019-01-02T09:32:44.745Z,1.10
2019-01-02T09:40:42.798Z,2.20
2019-01-02T09:46:39.623Z,1.00
2019-01-02T09:54:12.234Z,1.40
2019-01-02T09:59:36.837Z,1.20
2019-01-02T10:06:58.509Z,1.20
2019-01-02T10:12:56.785Z,1.10
2019-01-02T10:18:31.314Z,1.47
2019-01-02T10:23:57.113Z,1.23
2019-01-02T10:30:11.253Z,1.30
2019-01-02T10:36:31.889Z,1.60
2019-01-02T10:41:56.633Z,1.40
2019-01-02T10:47:16.073Z,1.30
2019-01-02T10:52:37.000Z,1.30
2019-01-02T11:00:14.866Z,1.50
2019-01-02T11:05:44.277Z,1.30
2019-01-02T11:11:11.391Z,1.60
2019-01-02T11:16:46.445Z,1.50
2019-01-02T11:24:45.645Z,1.23
2019-01-02T11:30:13.129Z,1.57
2019-01-02T11:38:16.197Z,1.00
2019-01-02T11:43:48.102Z,1.20
2019-01-02T11:48:53.353Z,1.10
2019-01-02T11:53:58.667Z,1.07
2019-01-02T11:59:03.952Z,1.20
2019-01-02T12:04:09.297Z,1.00
2019-01-02T12:09:14.529Z,1.10
2019-01-02T12:14:19.791Z,1.17
2019-01-02T12:19:25.005Z,1.40
2019-01-02T12:24:30.214Z,1.10
2019-01-02T12:29:35.441Z,1.40
2019-01-02T12:34:40.673Z,1.20
2019-01-02T12:39:45.894Z,1.10
2019-01-02T12:44:51.123Z,1.20
2019-01-02T12:49:56.353Z,0.97
2019-01-02T12:55:01.575Z,0.93
2019-01-02T13:00:12.231Z,0.80
2019-01-02T13:05:44.360Z,0.87
2019-01-02T13:11:07.573Z,0.80
2019-01-02T13:16:30.436Z,0.70
2019-01-02T13:22:34.510Z,0.57
2019-01-02T13:28:00.214Z,0.80
2019-01-02T13:33:33.713Z,0.80
2019-01-02T13:38:56.205Z,1.10
2019-01-02T13:44:15.258Z,0.70
2019-01-02T13:50:38.905Z,0.80
2019-01-02T13:55:44.165Z,1.17
2019-01-02T14:00:49.421Z,0.80
2019-01-02T14:05:54.680Z,1.23
2019-01-02T14:10:59.929Z,1.33
2019-01-02T14:16:05.201Z,0.80
2019-01-02T14:21:10.437Z,1.03
2019-01-02T14:26:15.681Z,1.20
2019-01-02T14:31:20.930Z,1.27
2019-01-02T14:36:26.173Z,1.17
2019-01-02T14:41:31.397Z,1.33
2019-01-02T14:46:36.646Z,1.60
2019-01-02T14:51:41.981Z,1.23
2019-01-02T14:56:47.290Z,1.07
2019-01-02T15:01:52.550Z,1.13
2019-01-02T15:06:57.828Z,1.80
2019-01-02T15:12:03.101Z,1.70
2019-01-02T15:17:08.357Z,1.60
2019-01-02T15:22:13.616Z,1.20
2019-01-02T15:27:18.877Z,1.20
2019-01-02T15:32:24.228Z,1.57
2019-01-02T15:37:29.533Z,1.00
2019-01-02T15:42:34.830Z,1.20
2019-01-02T15:47:40.131Z,1.40
2019-01-02T15:52:45.665Z,1.33
2019-01-02T15:57:50.918Z,1.20
2019-01-02T16:02:56.178Z,1.30
2019-01-02T16:08:01.434Z,1.40
2019-01-02T16:13:06.733Z,1.60
2019-01-02T16:18:11.998Z,1.10
2019-01-02T16:23:17.306Z,1.50
2019-01-02T16:28:22.636Z,1.80
2019-01-02T16:33:27.922Z,1.63
2019-01-02T16:38:33.176Z,1.53
2019-01-02T16:43:38.430Z,1.93
2019-01-02T16:48:43.929Z,1.97
2019-01-02T16:53:49.295Z,1.50
2019-01-02T16:58:54.548Z,1.67
2019-01-02T17:03:59.807Z,1.50
2019-01-02T17:09:08.042Z,1.47
2019-01-02T17:14:13.378Z,1.50
2019-01-02T17:19:18.660Z,1.60
2019-01-02T17:24:23.958Z,1.27
2019-01-02T17:29:29.266Z,1.30
2019-01-02T17:34:34.546Z,1.50
2019-01-02T17:39:39.820Z,1.50
2019-01-02T17:44:45.092Z,1.27
2019-01-02T17:49:50.399Z,1.33
2019-01-02T17:54:55.801Z,1.30
2019-01-02T18:00:01.057Z,1.40
2019-01-02T18:05:06.369Z,1.60
2019-01-02T18:10:11.673Z,1.60
2019-01-02T18:15:16.962Z,1.33
2019-01-02T18:20:22.302Z,1.60
2019-01-02T18:25:27.540Z,1.10
2019-01-02T18:30:32.926Z,1.43
2019-01-02T18:35:38.186Z,1.30
2019-01-02T18:40:43.446Z,1.07
2019-01-02T18:45:48.749Z,1.60
2019-01-02T18:50:54.096Z,1.30
2019-01-02T18:55:59.554Z,0.90
2019-01-02T19:01:05.129Z,1.23
2019-01-02T19:06:10.514Z,1.20
2019-01-02T19:11:15.858Z,1.90
2019-01-02T19:16:21.692Z,1.90
2019-01-02T19:21:26.402Z,2.40
2019-01-02T19:26:31.823Z,2.27
2019-01-02T19:31:37.239Z,2.10
2019-01-02T19:36:42.562Z,1.80
2019-01-02T19:41:47.929Z,2.37
2019-01-02T19:46:53.261Z,2.27
2019-01-02T19:51:58.517Z,1.67
2019-01-02T19:57:03.775Z,1.80
2019-01-02T20:02:09.030Z,1.70
2019-01-02T20:07:14.366Z,1.60
2019-01-02T20:12:19.636Z,1.77
2019-01-02T20:17:24.903Z,1.80
2019-01-02T20:22:30.149Z,1.93
2019-01-02T20:27:35.509Z,2.40
2019-01-02T20:32:40.869Z,1.77
2019-01-02T20:37:46.128Z,2.03
2019-01-02T20:42:51.501Z,3.07
2019-01-02T20:47:56.796Z,3.10
2019-01-02T20:53:02.378Z,3.13
2019-01-02T20:58:07.679Z,2.80
2019-01-02T21:03:12.992Z,2.80
2019-01-02T21:08:18.453Z,2.20
2019-01-02T21:13:23.826Z,2.17
2019-01-02T21:18:29.082Z,2.40
2019-01-02T21:23:34.362Z,2.90
2019-01-02T21:28:39.714Z,2.47
2019-01-02T21:33:44.969Z,1.77
2019-01-02T21:38:50.207Z,2.03
2019-01-02T21:43:55.577Z,1.67
2019-01-02T21:49:00.806Z,2.07
2019-01-02T21:54:06.077Z,1.60
2019-01-02T21:59:11.351Z,2.10
2019-01-02T22:04:16.586Z,1.57
2019-01-02T22:09:21.834Z,1.50
2019-01-02T22:14:27.126Z,1.90
2019-01-02T22:19:32.393Z,2.00
2019-01-02T22:24:37.624Z,1.60
2019-01-02T22:29:42.885Z,1.77
2019-01-02T22:34:48.142Z,1.63
2019-01-02T22:39:53.389Z,1.33
2019-01-02T22:44:58.633Z,2.10
2019-01-02T22:50:04.343Z,1.60
2019-01-02T22:55:09.626Z,1.90
2019-01-02T23:00:19.309Z,1.90
2019-01-02T23:05:33.714Z,2.00
2019-01-02T23:10:44.197Z,1.63
2019-01-02T23:15:54.510Z,1.90
2019-01-02T23:22:04.914Z,1.67
2019-01-02T23:27:17.002Z,1.60
2019-01-02T23:32:31.330Z,1.57
2019-01-02T23:37:40.640Z,1.50
2019-01-02T23:42:51.118Z,1.10
2019-01-02T23:48:00.425Z,1.20
2019-01-02T23:53:10.690Z,1.50
2019-01-02T23:58:24.909Z,1.60
